sensor_id;sensor_type;location;lat;lon;timestamp;pressure;altitude;pressure_sealevel;temperature;humidity
21658;BME280;10990;48.174;9.782;2023-07-16T00:00:27;92466.34;;;21.44;100.00
21658;BME280;10990;48.174;9.782;2023-07-16T00:02:54;92394.56;;;21.45;100.00
21658;BME280;10990;48.174;9.782;2023-07-16T00:05:22;92355.94;;;21.55;100.00
21658;BME280;10990;48.174;9.782;2023-07-16T00:07:49;92398.88;;;21.27;100.00
21658;BME280;10990;48.174;9.782;2023-07-16T00:10:16;92380.59;;;21.29;100.00
21658;BME280;10990;48.174;9.782;2023-07-16T00:12:43;92343.09;;;21.52;100.00
21658;BME280;10990;48.174;9.782;2023-07-16T00:15:09;92386.09;;;21.38;100.00
21658;BME280;10990;48.174;9.782;2023-07-16T00:17:36;92415.28;;;21.25;100.00
21658;BME280;10990;48.174;9.782;2023-07-16T00:20:03;92421.97;;;21.28;100.00
21658;BME280;10990;48.174;9.782;2023-07-16T00:22:32;92449.75;;;21.23;100.00
21658;BME280;10990;48.174;9.782;2023-07-16T00:24:59;92457.22;;;21.26;100.00
21658;BME280;10990;48.174;9.782;2023-07-16T00:27:26;92477.94;;;21.26;100.00
21658;BME280;10990;48.174;9.782;2023-07-16T00:29:52;92490.88;;;21.05;100.00
21658;BME280;10990;48.174;9.782;2023-07-16T00:32:19;92492.84;;;20.99;100.00
21658;BME280;10990;48.174;9.782;2023-07-16T00:34:45;92506.47;;;21.03;100.00
21658;BME280;10990;48.174;9.782;2023-07-16T00:37:12;92525.94;;;21.14;100.00
21658;BME280;10990;48.174;9.782;2023-07-16T00:39:40;92551.94;;;21.18;100.00
21658;BME280;10990;48.174;9.782;2023-07-16T00:42:07;92580.50;;;20.95;100.00
21658;BME280;10990;48.174;9.782;2023-07-16T00:44:34;92571.50;;;21.24;100.00
21658;BME280;10990;48.174;9.782;2023-07-16T00:47:00;92615.31;;;21.00;100.00
21658;BME280;10990;48.174;9.782;2023-07-16T00:49:28;92614.53;;;21.00;100.00
21658;BME280;10990;48.174;9.782;2023-07-16T00:51:55;92633.69;;;20.93;100.00
21658;BME280;10990;48.174;9.782;2023-07-16T00:54:23;92625.91;;;20.92;100.00
21658;BME280;10990;48.174;9.782;2023-07-16T00:56:51;92613.53;;;20.96;100.00
21658;BME280;10990;48.174;9.782;2023-07-16T00:59:18;92606.56;;;20.95;100.00
21658;BME280;10990;48.174;9.782;2023-07-16T01:01:44;92588.13;;;21.07;100.00
21658;BME280;10990;48.174;9.782;2023-07-16T01:04:13;92606.88;;;21.12;100.00
21658;BME280;10990;48.174;9.782;2023-07-16T01:06:41;92623.41;;;21.19;100.00
21658;BME280;10990;48.174;9.782;2023-07-16T01:09:14;92609.63;;;21.26;100.00
21658;BME280;10990;48.174;9.782;2023-07-16T01:11:42;92619.19;;;21.13;100.00
21658;BME280;10990;48.174;9.782;2023-07-16T01:14:12;92627.38;;;21.03;100.00
21658;BME280;10990;48.174;9.782;2023-07-16T01:16:40;92622.38;;;20.96;100.00
21658;BME280;10990;48.174;9.782;2023-07-16T01:19:07;92599.72;;;21.02;100.00
21658;BME280;10990;48.174;9.782;2023-07-16T01:21:42;92615.50;;;21.09;100.00
21658;BME280;10990;48.174;9.782;2023-07-16T01:24:44;92617.09;;;21.10;100.00
21658;BME280;10990;48.174;9.782;2023-07-16T01:27:27;92607.13;;;20.92;100.00
21658;BME280;10990;48.174;9.782;2023-07-16T01:29:58;92583.97;;;20.96;100.00
21658;BME280;10990;48.174;9.782;2023-07-16T01:32:30;92617.53;;;20.98;100.00
21658;BME280;10990;48.174;9.782;2023-07-16T01:35:01;92647.97;;;20.89;100.00
21658;BME280;10990;48.174;9.782;2023-07-16T01:37:28;92703.34;;;20.60;100.00
21658;BME280;10990;48.174;9.782;2023-07-16T01:39:55;92802.47;;;20.57;100.00
21658;BME280;10990;48.174;9.782;2023-07-16T01:42:22;92886.16;;;20.25;100.00
21658;BME280;10990;48.174;9.782;2023-07-16T01:44:48;92941.31;;;19.97;100.00
21658;BME280;10990;48.174;9.782;2023-07-16T01:47:24;92979.91;;;19.96;100.00
21658;BME280;10990;48.174;9.782;2023-07-16T01:49:53;92989.59;;;19.86;100.00
21658;BME280;10990;48.174;9.782;2023-07-16T01:52:19;93011.84;;;20.02;100.00
21658;BME280;10990;48.174;9.782;2023-07-16T01:54:46;93026.06;;;19.87;100.00
21658;BME280;10990;48.174;9.782;2023-07-16T01:57:13;93056.41;;;19.88;100.00
21658;BME280;10990;48.174;9.782;2023-07-16T01:59:39;93039.16;;;20.04;100.00
21658;BME280;10990;48.174;9.782;2023-07-16T02:02:06;93064.44;;;19.83;100.00
21658;BME280;10990;48.174;9.782;2023-07-16T02:04:34;93086.69;;;19.58;100.00
21658;BME280;10990;48.174;9.782;2023-07-16T02:07:01;93034.16;;;19.82;100.00
21658;BME280;10990;48.174;9.782;2023-07-16T02:09:29;93041.84;;;20.14;100.00
21658;BME280;10990;48.174;9.782;2023-07-16T02:11:55;93052.03;;;20.07;100.00
21658;BME280;10990;48.174;9.782;2023-07-16T02:14:23;93127.69;;;19.48;100.00
21658;BME280;10990;48.174;9.782;2023-07-16T02:16:50;93081.84;;;19.44;100.00
21658;BME280;10990;48.174;9.782;2023-07-16T02:19:16;93095.25;;;19.44;100.00
21658;BME280;10990;48.174;9.782;2023-07-16T02:21:44;93059.06;;;19.93;100.00
21658;BME280;10990;48.174;9.782;2023-07-16T02:24:11;93045.41;;;19.69;100.00
21658;BME280;10990;48.174;9.782;2023-07-16T02:26:40;93015.38;;;19.52;100.00
21658;BME280;10990;48.174;9.782;2023-07-16T02:29:10;92973.81;;;19.69;100.00
21658;BME280;10990;48.174;9.782;2023-07-16T02:31:37;92992.31;;;19.61;100.00
21658;BME280;10990;48.174;9.782;2023-07-16T02:34:04;92964.97;;;19.64;100.00
21658;BME280;10990;48.174;9.782;2023-07-16T02:36:32;92958.75;;;19.89;100.00
21658;BME280;10990;48.174;9.782;2023-07-16T02:39:00;92969.97;;;20.01;100.00
21658;BME280;10990;48.174;9.782;2023-07-16T02:41:27;92994.41;;;20.00;100.00
21658;BME280;10990;48.174;9.782;2023-07-16T02:43:59;93008.84;;;20.09;100.00
21658;BME280;10990;48.174;9.782;2023-07-16T02:46:27;93035.91;;;20.18;100.00
21658;BME280;10990;48.174;9.782;2023-07-16T02:48:54;93057.16;;;20.14;100.00
21658;BME280;10990;48.174;9.782;2023-07-16T02:51:21;93081.84;;;20.06;100.00
21658;BME280;10990;48.174;9.782;2023-07-16T02:53:47;93078.31;;;20.15;100.00
21658;BME280;10990;48.174;9.782;2023-07-16T02:56:16;93081.00;;;20.26;100.00
21658;BME280;10990;48.174;9.782;2023-07-16T02:58:42;93092.50;;;20.31;100.00
21658;BME280;10990;48.174;9.782;2023-07-16T03:01:09;93115.03;;;20.35;100.00
21658;BME280;10990;48.174;9.782;2023-07-16T03:03:36;93113.19;;;20.36;100.00
21658;BME280;10990;48.174;9.782;2023-07-16T03:06:03;93122.84;;;20.32;100.00
21658;BME280;10990;48.174;9.782;2023-07-16T03:08:29;93147.28;;;20.25;100.00
21658;BME280;10990;48.174;9.782;2023-07-16T03:10:57;93164.72;;;20.12;100.00
21658;BME280;10990;48.174;9.782;2023-07-16T03:13:25;93175.47;;;20.07;100.00
21658;BME280;10990;48.174;9.782;2023-07-16T03:15:51;93180.03;;;20.12;100.00
21658;BME280;10990;48.174;9.782;2023-07-16T03:18:19;93194.28;;;19.97;100.00
21658;BME280;10990;48.174;9.782;2023-07-16T03:20:46;93193.19;;;19.83;100.00
21658;BME280;10990;48.174;9.782;2023-07-16T03:23:13;93177.63;;;19.80;100.00
21658;BME280;10990;48.174;9.782;2023-07-16T03:25:40;93180.78;;;19.61;100.00
21658;BME280;10990;48.174;9.782;2023-07-16T03:28:07;93174.63;;;19.56;100.00
21658;BME280;10990;48.174;9.782;2023-07-16T03:30:35;93190.44;;;19.52;100.00
21658;BME280;10990;48.174;9.782;2023-07-16T03:33:03;93184.34;;;19.77;100.00
21658;BME280;10990;48.174;9.782;2023-07-16T03:35:29;93184.03;;;19.63;100.00
21658;BME280;10990;48.174;9.782;2023-07-16T03:37:57;93172.50;;;19.73;100.00
21658;BME280;10990;48.174;9.782;2023-07-16T03:40:26;93144.63;;;19.79;100.00
21658;BME280;10990;48.174;9.782;2023-07-16T03:42:53;93152.94;;;19.78;100.00
21658;BME280;10990;48.174;9.782;2023-07-16T03:45:21;93155.09;;;19.86;100.00
21658;BME280;10990;48.174;9.782;2023-07-16T03:47:51;93166.63;;;19.86;100.00
21658;BME280;10990;48.174;9.782;2023-07-16T03:50:18;93180.03;;;19.76;100.00
21658;BME280;10990;48.174;9.782;2023-07-16T03:52:44;93167.97;;;19.79;100.00
21658;BME280;10990;48.174;9.782;2023-07-16T03:55:13;93154.56;;;19.79;100.00
21658;BME280;10990;48.174;9.782;2023-07-16T03:57:40;93161.72;;;19.42;100.00
21658;BME280;10990;48.174;9.782;2023-07-16T04:00:08;93119.91;;;19.36;100.00
21658;BME280;10990;48.174;9.782;2023-07-16T04:02:46;93066.28;;;19.62;100.00
21658;BME280;10990;48.174;9.782;2023-07-16T04:05:18;93056.94;;;19.69;100.00
21658;BME280;10990;48.174;9.782;2023-07-16T04:07:45;93047.03;;;19.60;100.00
21658;BME280;10990;48.174;9.782;2023-07-16T04:10:11;93060.94;;;19.57;100.00
21658;BME280;10990;48.174;9.782;2023-07-16T04:12:38;93064.72;;;19.40;100.00
21658;BME280;10990;48.174;9.782;2023-07-16T04:15:07;93037.88;;;19.51;100.00
21658;BME280;10990;48.174;9.782;2023-07-16T04:17:35;93057.47;;;19.20;100.00
21658;BME280;10990;48.174;9.782;2023-07-16T04:20:02;93053.16;;;19.19;100.00
21658;BME280;10990;48.174;9.782;2023-07-16T04:22:33;93043.25;;;19.20;100.00
21658;BME280;10990;48.174;9.782;2023-07-16T04:24:59;93058.53;;;19.09;100.00
21658;BME280;10990;48.174;9.782;2023-07-16T04:27:26;93052.06;;;19.00;100.00
21658;BME280;10990;48.174;9.782;2023-07-16T04:29:53;93060.28;;;18.73;100.00
21658;BME280;10990;48.174;9.782;2023-07-16T04:32:19;93047.25;;;18.97;100.00
21658;BME280;10990;48.174;9.782;2023-07-16T04:34:46;93066.25;;;18.90;100.00
21658;BME280;10990;48.174;9.782;2023-07-16T04:37:13;93045.88;;;18.94;100.00
21658;BME280;10990;48.174;9.782;2023-07-16T04:39:41;93044.31;;;19.09;100.00
21658;BME280;10990;48.174;9.782;2023-07-16T04:42:07;93059.06;;;19.21;100.00
21658;BME280;10990;48.174;9.782;2023-07-16T04:44:34;93088.50;;;19.11;100.00
21658;BME280;10990;48.174;9.782;2023-07-16T04:47:00;93096.53;;;19.11;100.00
21658;BME280;10990;48.174;9.782;2023-07-16T04:49:27;93102.72;;;19.07;100.00
21658;BME280;10990;48.174;9.782;2023-07-16T04:51:54;93114.47;;;19.00;100.00
21658;BME280;10990;48.174;9.782;2023-07-16T04:54:20;93108.59;;;19.03;100.00
21658;BME280;10990;48.174;9.782;2023-07-16T04:56:48;93128.44;;;19.08;100.00
21658;BME280;10990;48.174;9.782;2023-07-16T04:59:15;93153.56;;;18.91;100.00
21658;BME280;10990;48.174;9.782;2023-07-16T05:01:42;93173.09;;;18.87;100.00
21658;BME280;10990;48.174;9.782;2023-07-16T05:04:08;93173.31;;;18.80;100.00
21658;BME280;10990;48.174;9.782;2023-07-16T05:06:35;93183.78;;;18.81;100.00
21658;BME280;10990;48.174;9.782;2023-07-16T05:09:02;93188.88;;;18.83;100.00
21658;BME280;10990;48.174;9.782;2023-07-16T05:11:28;93199.34;;;18.90;100.00
21658;BME280;10990;48.174;9.782;2023-07-16T05:13:56;93217.03;;;18.91;100.00
21658;BME280;10990;48.174;9.782;2023-07-16T05:16:23;93225.09;;;18.96;100.00
21658;BME280;10990;48.174;9.782;2023-07-16T05:18:50;93248.81;;;18.77;100.00
21658;BME280;10990;48.174;9.782;2023-07-16T05:21:16;93233.03;;;18.75;100.00
21658;BME280;10990;48.174;9.782;2023-07-16T05:23:43;93223.75;;;18.51;100.00
21658;BME280;10990;48.174;9.782;2023-07-16T05:26:10;93207.72;;;18.56;100.00
21658;BME280;10990;48.174;9.782;2023-07-16T05:28:37;93203.22;;;18.67;100.00
21658;BME280;10990;48.174;9.782;2023-07-16T05:31:05;93212.25;;;18.55;100.00
21658;BME280;10990;48.174;9.782;2023-07-16T05:33:31;93205.06;;;18.61;100.00
21658;BME280;10990;48.174;9.782;2023-07-16T05:35:58;93220.31;;;18.60;100.00
21658;BME280;10990;48.174;9.782;2023-07-16T05:38:24;93222.94;;;18.55;100.00
21658;BME280;10990;48.174;9.782;2023-07-16T05:40:51;93228.34;;;18.60;100.00
21658;BME280;10990;48.174;9.782;2023-07-16T05:43:18;93182.44;;;18.79;100.00
21658;BME280;10990;48.174;9.782;2023-07-16T05:45:44;93212.34;;;18.71;100.00
21658;BME280;10990;48.174;9.782;2023-07-16T05:48:12;93220.47;;;18.86;100.00
21658;BME280;10990;48.174;9.782;2023-07-16T05:50:39;93248.22;;;18.70;100.00
21658;BME280;10990;48.174;9.782;2023-07-16T05:53:06;93259.28;;;18.78;100.00
21658;BME280;10990;48.174;9.782;2023-07-16T05:55:32;93287.28;;;18.66;100.00
21658;BME280;10990;48.174;9.782;2023-07-16T05:57:59;93316.69;;;18.60;100.00
21658;BME280;10990;48.174;9.782;2023-07-16T06:00:26;93310.94;;;18.74;100.00
21658;BME280;10990;48.174;9.782;2023-07-16T06:02:52;93348.28;;;18.58;100.00
21658;BME280;10990;48.174;9.782;2023-07-16T06:05:21;93369.53;;;18.70;100.00
21658;BME280;10990;48.174;9.782;2023-07-16T06:07:49;93384.81;;;18.43;100.00
21658;BME280;10990;48.174;9.782;2023-07-16T06:10:16;93407.25;;;18.69;100.00
21658;BME280;10990;48.174;9.782;2023-07-16T06:12:43;93382.06;;;18.97;100.00
21658;BME280;10990;48.174;9.782;2023-07-16T06:15:10;93404.09;;;19.57;100.00
21658;BME280;10990;48.174;9.782;2023-07-16T06:17:36;93462.59;;;19.65;100.00
21658;BME280;10990;48.174;9.782;2023-07-16T06:20:04;93510.72;;;19.72;100.00
21658;BME280;10990;48.174;9.782;2023-07-16T06:22:32;93549.44;;;19.91;100.00
21658;BME280;10990;48.174;9.782;2023-07-16T06:24:59;93570.38;;;20.42;100.00
21658;BME280;10990;48.174;9.782;2023-07-16T06:27:26;93637.91;;;21.39;100.00
21658;BME280;10990;48.174;9.782;2023-07-16T06:29:52;93728.97;;;21.15;100.00
21658;BME280;10990;48.174;9.782;2023-07-16T06:32:19;93803.41;;;20.72;100.00
21658;BME280;10990;48.174;9.782;2023-07-16T06:34:46;93814.94;;;20.67;100.00
21658;BME280;10990;48.174;9.782;2023-07-16T06:37:13;93835.75;;;20.50;100.00
21658;BME280;10990;48.174;9.782;2023-07-16T06:39:41;93893.16;;;19.95;100.00
21658;BME280;10990;48.174;9.782;2023-07-16T06:42:08;93896.88;;;20.15;100.00
21658;BME280;10990;48.174;9.782;2023-07-16T06:44:35;93897.34;;;20.34;100.00
21658;BME280;10990;48.174;9.782;2023-07-16T06:47:02;93972.53;;;20.34;100.00
21658;BME280;10990;48.174;9.782;2023-07-16T06:49:29;93951.47;;;20.26;100.00
21658;BME280;10990;48.174;9.782;2023-07-16T06:51:56;93957.25;;;19.91;100.00
21658;BME280;10990;48.174;9.782;2023-07-16T06:54:23;93930.97;;;20.15;100.00
21658;BME280;10990;48.174;9.782;2023-07-16T06:56:51;93961.06;;;20.17;100.00
21658;BME280;10990;48.174;9.782;2023-07-16T06:59:17;93962.06;;;20.33;100.00
21658;BME280;10990;48.174;9.782;2023-07-16T07:01:44;93998.88;;;20.59;100.00
21658;BME280;10990;48.174;9.782;2023-07-16T07:04:11;94013.28;;;20.75;100.00
21658;BME280;10990;48.174;9.782;2023-07-16T07:06:38;94040.84;;;20.66;100.00
21658;BME280;10990;48.174;9.782;2023-07-16T07:09:04;94042.84;;;21.99;100.00
21658;BME280;10990;48.174;9.782;2023-07-16T07:11:31;94145.25;;;23.10;100.00
21658;BME280;10990;48.174;9.782;2023-07-16T07:13:59;94328.84;;;23.03;100.00
21658;BME280;10990;48.174;9.782;2023-07-16T07:16:26;94367.06;;;23.32;100.00
21658;BME280;10990;48.174;9.782;2023-07-16T07:18:52;94453.09;;;21.98;100.00
21658;BME280;10990;48.174;9.782;2023-07-16T07:21:19;94502.75;;;21.85;100.00
21658;BME280;10990;48.174;9.782;2023-07-16T07:23:46;94501.91;;;21.85;100.00
21658;BME280;10990;48.174;9.782;2023-07-16T07:26:13;94554.09;;;21.16;100.00
21658;BME280;10990;48.174;9.782;2023-07-16T07:28:39;94550.38;;;20.89;100.00
21658;BME280;10990;48.174;9.782;2023-07-16T07:31:07;94554.53;;;20.96;100.00
21658;BME280;10990;48.174;9.782;2023-07-16T07:33:34;94495.53;;;20.73;100.00
21658;BME280;10990;48.174;9.782;2023-07-16T07:36:01;94492.81;;;20.56;100.00
21658;BME280;10990;48.174;9.782;2023-07-16T07:38:27;94523.94;;;20.69;100.00
21658;BME280;10990;48.174;9.782;2023-07-16T07:40:54;94536.63;;;20.45;100.00
21658;BME280;10990;48.174;9.782;2023-07-16T07:43:21;94554.03;;;21.79;100.00
21658;BME280;10990;48.174;9.782;2023-07-16T07:45:48;94643.50;;;22.36;100.00
21658;BME280;10990;48.174;9.782;2023-07-16T07:48:16;94792.06;;;22.79;100.00
21658;BME280;10990;48.174;9.782;2023-07-16T07:50:42;94878.94;;;22.81;100.00
21658;BME280;10990;48.174;9.782;2023-07-16T07:53:09;94970.72;;;23.92;100.00
21658;BME280;10990;48.174;9.782;2023-07-16T07:55:36;95106.69;;;23.98;100.00
21658;BME280;10990;48.174;9.782;2023-07-16T07:58:02;95230.22;;;24.20;100.00
21658;BME280;10990;48.174;9.782;2023-07-16T08:00:29;95307.03;;;25.47;100.00
21658;BME280;10990;48.174;9.782;2023-07-16T08:02:56;95434.31;;;25.47;100.00
21658;BME280;10990;48.174;9.782;2023-07-16T08:05:24;95559.19;;;25.50;100.00
21658;BME280;10990;48.174;9.782;2023-07-16T08:07:51;95563.44;;;24.44;100.00
21658;BME280;10990;48.174;9.782;2023-07-16T08:10:18;95499.78;;;24.12;100.00
21658;BME280;10990;48.174;9.782;2023-07-16T08:12:45;95465.38;;;24.08;100.00
21658;BME280;10990;48.174;9.782;2023-07-16T08:15:12;95530.50;;;24.47;100.00
21658;BME280;10990;48.174;9.782;2023-07-16T08:17:40;95602.28;;;24.78;100.00
21658;BME280;10990;48.174;9.782;2023-07-16T08:20:08;95621.75;;;25.49;100.00
21658;BME280;10990;48.174;9.782;2023-07-16T08:22:36;95666.22;;;25.53;100.00
21658;BME280;10990;48.174;9.782;2023-07-16T08:25:04;95710.66;;;25.98;100.00
21658;BME280;10990;48.174;9.782;2023-07-16T08:27:31;95718.94;;;26.75;100.00
21658;BME280;10990;48.174;9.782;2023-07-16T08:29:58;95827.03;;;27.34;100.00
21658;BME280;10990;48.174;9.782;2023-07-16T08:32:25;95846.88;;;27.18;100.00
21658;BME280;10990;48.174;9.782;2023-07-16T08:34:51;95899.00;;;27.37;100.00
21658;BME280;10990;48.174;9.782;2023-07-16T08:37:18;95899.19;;;26.79;100.00
21658;BME280;10990;48.174;9.782;2023-07-16T08:39:46;95915.88;;;26.88;100.00
21658;BME280;10990;48.174;9.782;2023-07-16T08:42:13;95935.06;;;27.49;100.00
21658;BME280;10990;48.174;9.782;2023-07-16T08:44:41;95949.75;;;27.70;100.00
21658;BME280;10990;48.174;9.782;2023-07-16T08:47:08;95962.84;;;27.17;100.00
21658;BME280;10990;48.174;9.782;2023-07-16T08:49:35;95965.88;;;27.38;100.00
21658;BME280;10990;48.174;9.782;2023-07-16T08:52:02;95977.69;;;27.15;100.00
21658;BME280;10990;48.174;9.782;2023-07-16T08:54:30;95965.88;;;26.58;100.00
21658;BME280;10990;48.174;9.782;2023-07-16T08:56:59;95960.88;;;26.84;100.00
21658;BME280;10990;48.174;9.782;2023-07-16T08:59:26;95988.19;;;25.38;100.00
21658;BME280;10990;48.174;9.782;2023-07-16T09:01:53;95989.03;;;25.50;100.00
21658;BME280;10990;48.174;9.782;2023-07-16T09:04:20;95994.53;;;24.78;100.00
21658;BME280;10990;48.174;9.782;2023-07-16T09:06:47;95966.41;;;24.67;100.00
21658;BME280;10990;48.174;9.782;2023-07-16T09:09:19;95985.06;;;24.99;100.00
21658;BME280;10990;48.174;9.782;2023-07-16T09:11:47;95977.38;;;25.26;100.00
21658;BME280;10990;48.174;9.782;2023-07-16T09:14:17;95969.72;;;25.35;100.00
21658;BME280;10990;48.174;9.782;2023-07-16T09:16:48;95945.06;;;25.13;100.00
21658;BME280;10990;48.174;9.782;2023-07-16T09:19:15;95929.88;;;23.98;100.00
21658;BME280;10990;48.174;9.782;2023-07-16T09:21:46;95883.03;;;24.04;100.00
21658;BME280;10990;48.174;9.782;2023-07-16T09:24:13;95918.19;;;24.64;100.00
21658;BME280;10990;48.174;9.782;2023-07-16T09:26:47;95927.78;;;25.61;100.00
21658;BME280;10990;48.174;9.782;2023-07-16T09:29:14;95944.00;;;25.72;100.00
21658;BME280;10990;48.174;9.782;2023-07-16T09:31:52;95946.59;;;25.67;100.00
21658;BME280;10990;48.174;9.782;2023-07-16T09:34:19;95949.44;;;25.72;100.00
21658;BME280;10990;48.174;9.782;2023-07-16T09:36:47;95957.88;;;26.11;100.00
21658;BME280;10990;48.174;9.782;2023-07-16T09:39:16;95974.88;;;25.95;100.00
21658;BME280;10990;48.174;9.782;2023-07-16T09:41:44;95978.06;;;25.80;100.00
21658;BME280;10990;48.174;9.782;2023-07-16T09:44:11;95997.97;;;25.98;100.00
21658;BME280;10990;48.174;9.782;2023-07-16T09:46:38;95994.66;;;25.72;100.00
21658;BME280;10990;48.174;9.782;2023-07-16T09:49:07;96000.91;;;25.61;100.00
21658;BME280;10990;48.174;9.782;2023-07-16T09:51:35;96002.97;;;25.12;100.00
21658;BME280;10990;48.174;9.782;2023-07-16T09:54:02;96005.97;;;25.69;100.00
21658;BME280;10990;48.174;9.782;2023-07-16T09:56:36;96007.63;;;26.05;100.00
21658;BME280;10990;48.174;9.782;2023-07-16T09:59:07;96009.38;;;26.11;100.00
21658;BME280;10990;48.174;9.782;2023-07-16T10:01:36;96014.56;;;26.01;100.00
21658;BME280;10990;48.174;9.782;2023-07-16T10:04:13;96013.41;;;25.38;100.00
21658;BME280;10990;48.174;9.782;2023-07-16T10:06:51;96009.44;;;25.88;100.00
21658;BME280;10990;48.174;9.782;2023-07-16T10:09:34;96017.03;;;25.44;100.00
21658;BME280;10990;48.174;9.782;2023-07-16T10:12:14;96012.69;;;25.66;100.00
21658;BME280;10990;48.174;9.782;2023-07-16T10:14:43;95987.91;;;26.10;100.00
21658;BME280;10990;48.174;9.782;2023-07-16T10:17:13;95997.41;;;26.93;100.00
21658;BME280;10990;48.174;9.782;2023-07-16T10:19:55;96011.91;;;26.42;100.00
21658;BME280;10990;48.174;9.782;2023-07-16T10:22:34;96001.31;;;26.69;100.00
21658;BME280;10990;48.174;9.782;2023-07-16T10:25:02;95999.06;;;26.37;100.00
21658;BME280;10990;48.174;9.782;2023-07-16T10:27:31;96003.25;;;26.85;100.00
21658;BME280;10990;48.174;9.782;2023-07-16T10:29:58;95999.78;;;27.18;100.00
21658;BME280;10990;48.174;9.782;2023-07-16T10:32:27;96007.72;;;26.63;100.00
21658;BME280;10990;48.174;9.782;2023-07-16T10:34:56;95997.94;;;27.07;100.00
21658;BME280;10990;48.174;9.782;2023-07-16T10:37:24;96000.56;;;27.02;100.00
21658;BME280;10990;48.174;9.782;2023-07-16T10:39:53;95997.97;;;27.24;100.00
21658;BME280;10990;48.174;9.782;2023-07-16T10:42:21;95997.56;;;26.70;100.00
21658;BME280;10990;48.174;9.782;2023-07-16T10:44:49;95997.88;;;27.19;100.00
21658;BME280;10990;48.174;9.782;2023-07-16T10:47:21;95986.38;;;27.29;100.00
21658;BME280;10990;48.174;9.782;2023-07-16T10:49:48;95985.56;;;26.99;100.00
21658;BME280;10990;48.174;9.782;2023-07-16T10:52:20;95982.72;;;27.06;100.00
21658;BME280;10990;48.174;9.782;2023-07-16T10:54:47;95993.19;;;26.28;100.00
21658;BME280;10990;48.174;9.782;2023-07-16T10:57:15;95993.31;;;27.08;100.00
21658;BME280;10990;48.174;9.782;2023-07-16T10:59:44;96002.16;;;26.86;100.00
21658;BME280;10990;48.174;9.782;2023-07-16T11:02:12;96010.03;;;26.71;100.00
21658;BME280;10990;48.174;9.782;2023-07-16T11:04:39;96005.75;;;26.75;100.00
21658;BME280;10990;48.174;9.782;2023-07-16T11:07:07;96004.31;;;26.84;100.00
21658;BME280;10990;48.174;9.782;2023-07-16T11:09:40;96005.84;;;26.80;100.00
21658;BME280;10990;48.174;9.782;2023-07-16T11:12:08;96015.66;;;26.81;100.00
21658;BME280;10990;48.174;9.782;2023-07-16T11:14:35;96018.38;;;26.81;100.00
21658;BME280;10990;48.174;9.782;2023-07-16T11:17:05;96013.34;;;26.73;100.00
21658;BME280;10990;48.174;9.782;2023-07-16T11:19:33;96001.22;;;26.64;100.00
21658;BME280;10990;48.174;9.782;2023-07-16T11:22:00;96002.31;;;26.10;100.00
21658;BME280;10990;48.174;9.782;2023-07-16T11:24:28;96003.41;;;26.38;100.00
21658;BME280;10990;48.174;9.782;2023-07-16T11:26:56;96004.31;;;26.44;100.00
21658;BME280;10990;48.174;9.782;2023-07-16T11:29:23;96000.56;;;26.45;100.00
21658;BME280;10990;48.174;9.782;2023-07-16T11:31:51;96001.13;;;26.06;100.00
21658;BME280;10990;48.174;9.782;2023-07-16T11:34:19;96010.22;;;26.00;100.00
21658;BME280;10990;48.174;9.782;2023-07-16T11:36:46;96004.84;;;26.29;100.00
21658;BME280;10990;48.174;9.782;2023-07-16T11:39:13;96005.38;;;25.79;100.00
21658;BME280;10990;48.174;9.782;2023-07-16T11:41:39;96009.31;;;26.35;100.00
21658;BME280;10990;48.174;9.782;2023-07-16T11:44:08;96012.06;;;26.23;100.00
21658;BME280;10990;48.174;9.782;2023-07-16T11:46:35;95996.25;;;26.72;100.00
21658;BME280;10990;48.174;9.782;2023-07-16T11:49:02;96005.66;;;26.29;100.00
21658;BME280;10990;48.174;9.782;2023-07-16T11:51:29;95998.38;;;26.18;100.00
21658;BME280;10990;48.174;9.782;2023-07-16T11:53:56;95997.19;;;26.26;100.00
21658;BME280;10990;48.174;9.782;2023-07-16T11:56:23;95995.53;;;26.36;100.00
21658;BME280;10990;48.174;9.782;2023-07-16T11:58:50;95990.56;;;26.33;100.00
21658;BME280;10990;48.174;9.782;2023-07-16T12:01:18;95978.28;;;26.71;100.00
21658;BME280;10990;48.174;9.782;2023-07-16T12:03:44;95981.66;;;26.62;100.00
21658;BME280;10990;48.174;9.782;2023-07-16T12:06:11;95982.31;;;26.69;100.00
21658;BME280;10990;48.174;9.782;2023-07-16T12:08:38;95978.97;;;26.38;100.00
21658;BME280;10990;48.174;9.782;2023-07-16T12:11:04;95976.63;;;26.42;100.00
21658;BME280;10990;48.174;9.782;2023-07-16T12:13:31;95976.94;;;26.16;100.00
21658;BME280;10990;48.174;9.782;2023-07-16T12:15:58;95984.97;;;26.52;100.00
21658;BME280;10990;48.174;9.782;2023-07-16T12:18:26;95978.03;;;26.44;100.00
21658;BME280;10990;48.174;9.782;2023-07-16T12:20:53;95976.13;;;26.56;100.00
21658;BME280;10990;48.174;9.782;2023-07-16T12:23:20;95982.75;;;26.08;100.00
21658;BME280;10990;48.174;9.782;2023-07-16T12:25:47;95964.88;;;25.84;100.00
21658;BME280;10990;48.174;9.782;2023-07-16T12:28:14;95970.22;;;26.19;100.00
21658;BME280;10990;48.174;9.782;2023-07-16T12:30:41;95966.63;;;26.02;100.00
21658;BME280;10990;48.174;9.782;2023-07-16T12:33:07;95984.66;;;25.84;100.00
21658;BME280;10990;48.174;9.782;2023-07-16T12:35:35;95981.09;;;26.07;100.00
21658;BME280;10990;48.174;9.782;2023-07-16T12:38:02;95972.13;;;26.19;100.00
21658;BME280;10990;48.174;9.782;2023-07-16T12:40:29;95971.34;;;26.35;100.00
21658;BME280;10990;48.174;9.782;2023-07-16T12:42:56;95963.31;;;26.40;100.00
21658;BME280;10990;48.174;9.782;2023-07-16T12:45:23;95969.16;;;26.20;100.00
21658;BME280;10990;48.174;9.782;2023-07-16T12:47:49;95965.09;;;26.34;100.00
21658;BME280;10990;48.174;9.782;2023-07-16T12:50:16;95972.34;;;26.46;100.00
21658;BME280;10990;48.174;9.782;2023-07-16T12:52:45;95983.00;;;26.35;100.00